YM Venus — 9HCB8 — position and weather

sailwx.info

Track history (hours):
 
Tides and Currents Weather Stations Pressure Air Temp Water Temp Dewpoint Dewpoint Depression Visibility Wind Speed Wind Dir Waves Ship Positions

YM Venus

Last reported at 2015-Aug-29 18:33 UTC. Time now 2015-Aug-31 06:47 UTC.
Position N 33°53' E 029°11'.

Length 105 m; draft 6.8 m.

Type: Ship (hazmat cat B). MMSI: 215826000.

Date/timePositionNaut miles runAvg speedWind from/ knotsBaromVisibWave heightAir tempDewpointWater temp
2015-Aug-29 18:33N 33°53' E 029°11'1711.5
2015-Aug-29 17:05N 33°49' E 029°31'611.6
2015-Aug-29 16:33N 33°48' E 029°38'1211.6
2015-Aug-29 15:32N 33°46' E 029°52'1411.6
2015-Aug-29 14:21N 33°43' E 030°08'911.6
2015-Aug-29 13:33N 33°41' E 030°19'1511.7
2015-Aug-29 12:15N 33°38' E 030°37'911.5
2015-Aug-29 11:26N 33°36' E 030°48'1011.8
2015-Aug-29 10:33N 33°34' E 031°00'1211.8
2015-Aug-29 09:33N 33°32' E 031°14'1211.7
2015-Aug-29 08:31N 33°29' E 031°29'1211.5
2015-Aug-29 07:30N 33°26' E 031°42'1111.6
2015-Aug-29 06:33N 33°24' E 031°55'1411.8
2015-Aug-29 05:23N 33°22' E 032°11'5812.1
2015-Aug-29 00:33N 33°10' E 033°20'1311.7
2015-Aug-28 23:26N 33°08' E 033°35'1111.8
2015-Aug-28 22:32N 33°05' E 033°48'3511.6
2015-Aug-28 19:32N 32°58' E 034°28'1111.7
2015-Aug-28 18:33N 32°56' E 034°42'55 1.1
2015-Aug-26 15:33N 33°11' E 033°38'9413.3
2015-Aug-26 08:30N 33°55' E 031°59'1313.7
2015-Aug-26 07:34N 34°01' E 031°45'1313.2
2015-Aug-26 06:34N 34°08' E 031°31'19 9.7
2015-Aug-26 04:33N 34°17' E 031°10'9 8.5
2015-Aug-26 03:32N 34°21' E 031°01'8 8.6
2015-Aug-26 02:34N 34°24' E 030°51'46 8.5
2015-Aug-25 21:09N 34°47' E 030°03'16 8.6
2015-Aug-25 19:17N 34°54' E 029°46'6 8.6
2015-Aug-25 18:33N 34°57' E 029°39'23211.4
2015-Aug-24 22:07N 37°23' E 025°55'711.6
2015-Aug-24 21:34N 37°26' E 025°48'1211.8
2015-Aug-24 20:34N 37°38' E 025°45'242 9.5
2015-Aug-23 19:06N 40°54' E 028°47'5 9.3
2015-Aug-23 18:33N 40°57' E 028°53'0 0.0
2015-Aug-23 12:24N 40°57' E 028°53'0 0.0
2015-Aug-23 09:24N 40°57' E 028°53'0 0.0
2015-Aug-23 07:25N 40°57' E 028°53'6 6.4
2015-Aug-23 06:33N 40°55' E 028°59'1111.4
2015-Aug-23 05:33N 40°47' E 029°10'1311.5
2015-Aug-23 04:25N 40°45' E 029°27'1 0.0
2015-Aug-21 18:32N 40°44' E 029°28'9 9.0
2015-Aug-21 17:34N 40°43' E 029°16'1110.9
2015-Aug-21 16:34N 40°44' E 029°02'234 6.1
2015-Aug-20 02:20N 37°42' E 025°52'1013.2
2015-Aug-20 01:33N 37°32' E 025°53'1111.5
2015-Aug-20 00:33N 37°23' E 026°03'1212.5
2015-Aug-19 23:33N 37°17' E 026°16'1313.0
2015-Aug-19 22:33N 37°10' E 026°30'1212.4
2015-Aug-19 21:34N 37°03' E 026°43'1312.8
2015-Aug-19 20:33N 36°50' E 026°45'1712.3
2015-Aug-19 19:10N 36°33' E 026°50'711.9
2015-Aug-19 18:33N 36°27' E 026°54'  
Track history (hours):
 
Tides and Currents Weather Stations Pressure Air Temp Water Temp Dewpoint Dewpoint Depression Visibility Wind Speed Wind Dir Waves Ship Positions

YM Venus

Last reported at 2015-Aug-29 18:33 UTC. Time now 2015-Aug-31 06:47 UTC.
Position N 33°53' E 029°11'.

Length 105 m; draft 6.8 m.

Type: Ship (hazmat cat B). MMSI: 215826000.

Date/timePositionNaut miles runAvg speedWind from/ knotsBaromVisibWave heightAir tempDewpointWater temp
2015-Aug-29 18:33N 33°53' E 029°11'1711.5
2015-Aug-29 17:05N 33°49' E 029°31'611.6
2015-Aug-29 16:33N 33°48' E 029°38'1211.6
2015-Aug-29 15:32N 33°46' E 029°52'1411.6
2015-Aug-29 14:21N 33°43' E 030°08'911.6
2015-Aug-29 13:33N 33°41' E 030°19'1511.7
2015-Aug-29 12:15N 33°38' E 030°37'911.5
2015-Aug-29 11:26N 33°36' E 030°48'1011.8
2015-Aug-29 10:33N 33°34' E 031°00'1211.8
2015-Aug-29 09:33N 33°32' E 031°14'1211.7
2015-Aug-29 08:31N 33°29' E 031°29'1211.5
2015-Aug-29 07:30N 33°26' E 031°42'1111.6
2015-Aug-29 06:33N 33°24' E 031°55'1411.8
2015-Aug-29 05:23N 33°22' E 032°11'5812.1
2015-Aug-29 00:33N 33°10' E 033°20'1311.7
2015-Aug-28 23:26N 33°08' E 033°35'1111.8
2015-Aug-28 22:32N 33°05' E 033°48'3511.6
2015-Aug-28 19:32N 32°58' E 034°28'1111.7
2015-Aug-28 18:33N 32°56' E 034°42'55 1.1
2015-Aug-26 15:33N 33°11' E 033°38'9413.3
2015-Aug-26 08:30N 33°55' E 031°59'1313.7
2015-Aug-26 07:34N 34°01' E 031°45'1313.2
2015-Aug-26 06:34N 34°08' E 031°31'19 9.7
2015-Aug-26 04:33N 34°17' E 031°10'9 8.5
2015-Aug-26 03:32N 34°21' E 031°01'8 8.6
2015-Aug-26 02:34N 34°24' E 030°51'46 8.5
2015-Aug-25 21:09N 34°47' E 030°03'16 8.6
2015-Aug-25 19:17N 34°54' E 029°46'6 8.6
2015-Aug-25 18:33N 34°57' E 029°39'23211.4
2015-Aug-24 22:07N 37°23' E 025°55'711.6
2015-Aug-24 21:34N 37°26' E 025°48'1211.8
2015-Aug-24 20:34N 37°38' E 025°45'242 9.5
2015-Aug-23 19:06N 40°54' E 028°47'5 9.3
2015-Aug-23 18:33N 40°57' E 028°53'0 0.0
2015-Aug-23 12:24N 40°57' E 028°53'0 0.0
2015-Aug-23 09:24N 40°57' E 028°53'0 0.0
2015-Aug-23 07:25N 40°57' E 028°53'6 6.4
2015-Aug-23 06:33N 40°55' E 028°59'1111.4
2015-Aug-23 05:33N 40°47' E 029°10'1311.5
2015-Aug-23 04:25N 40°45' E 029°27'1 0.0
2015-Aug-21 18:32N 40°44' E 029°28'9 9.0
2015-Aug-21 17:34N 40°43' E 029°16'1110.9
2015-Aug-21 16:34N 40°44' E 029°02'234 6.1
2015-Aug-20 02:20N 37°42' E 025°52'1013.2
2015-Aug-20 01:33N 37°32' E 025°53'1111.5
2015-Aug-20 00:33N 37°23' E 026°03'1212.5
2015-Aug-19 23:33N 37°17' E 026°16'1313.0
2015-Aug-19 22:33N 37°10' E 026°30'1212.4
2015-Aug-19 21:34N 37°03' E 026°43'1312.8
2015-Aug-19 20:33N 36°50' E 026°45'1712.3
2015-Aug-19 19:10N 36°33' E 026°50'711.9
2015-Aug-19 18:33N 36°27' E 026°54'  

Dump ship's entire track history